createdAt,value
2019-03-11T00:01:57.172Z,3.63
2019-03-11T00:04:26.712Z,4.50
2019-03-11T00:06:55.804Z,2.27
2019-03-11T00:09:24.124Z,2.00
2019-03-11T00:11:52.811Z,3.27
2019-03-11T00:14:21.241Z,2.33
2019-03-11T00:16:49.596Z,2.20
2019-03-11T00:19:18.163Z,1.53
2019-03-11T00:21:47.460Z,2.70
2019-03-11T00:24:16.255Z,2.23
2019-03-11T00:26:44.618Z,2.40
2019-03-11T00:29:13.316Z,3.20
2019-03-11T00:31:41.904Z,2.57
2019-03-11T00:34:10.551Z,2.73
2019-03-11T00:36:39.141Z,2.97
2019-03-11T00:39:07.496Z,3.23
2019-03-11T00:41:36.490Z,3.00
2019-03-11T00:44:05.242Z,2.60
2019-03-11T00:46:33.976Z,3.00
2019-03-11T00:49:02.913Z,2.70
2019-03-11T00:51:31.388Z,2.37
2019-03-11T00:54:00.344Z,2.17
2019-03-11T00:56:28.969Z,2.03
2019-03-11T00:58:57.712Z,2.33
2019-03-11T01:01:26.308Z,2.30
2019-03-11T01:03:54.756Z,2.47
2019-03-11T01:06:23.027Z,2.30
2019-03-11T01:08:51.544Z,1.93
2019-03-11T01:11:19.802Z,3.03
2019-03-11T01:13:48.106Z,2.17
2019-03-11T01:16:16.272Z,2.20
2019-03-11T01:18:44.988Z,1.70
2019-03-11T01:21:14.041Z,1.90
2019-03-11T01:23:42.635Z,1.60
2019-03-11T01:26:11.413Z,2.13
2019-03-11T01:28:39.908Z,1.87
2019-03-11T01:31:08.728Z,2.57
2019-03-11T01:33:37.077Z,2.30
2019-03-11T01:36:05.824Z,2.13
2019-03-11T01:38:34.476Z,2.47
2019-03-11T01:41:03.060Z,2.40
2019-03-11T01:43:31.183Z,2.30
2019-03-11T01:45:59.603Z,1.73
2019-03-11T01:48:28.357Z,2.00
2019-03-11T01:50:56.856Z,1.87
2019-03-11T01:53:25.319Z,1.87
2019-03-11T01:55:53.685Z,1.80
2019-03-11T01:58:22.008Z,1.90
2019-03-11T02:00:50.697Z,2.23
2019-03-11T02:03:19.550Z,1.63
2019-03-11T02:05:48.080Z,1.60
2019-03-11T02:08:16.925Z,2.80
2019-03-11T02:10:45.172Z,2.27
2019-03-11T02:13:13.408Z,1.50
2019-03-11T02:15:42.316Z,2.10
2019-03-11T02:18:11.054Z,1.83
2019-03-11T02:20:39.548Z,2.10
2019-03-11T02:23:08.364Z,2.10
2019-03-11T02:25:36.752Z,1.70
2019-03-11T02:28:05.240Z,3.40
2019-03-11T02:30:33.791Z,1.90
2019-03-11T02:33:02.397Z,2.23
2019-03-11T02:35:31.241Z,2.13
2019-03-11T02:38:00.003Z,1.97
2019-03-11T02:40:28.496Z,2.50
2019-03-11T02:42:56.809Z,2.00
2019-03-11T02:45:26.541Z,2.50
2019-03-11T02:47:55.288Z,3.13
2019-03-11T02:50:23.815Z,2.17
2019-03-11T02:52:52.552Z,2.10
2019-03-11T02:55:20.672Z,1.90
2019-03-11T02:57:48.789Z,2.40
2019-03-11T03:00:18.131Z,2.40
2019-03-11T03:02:58.738Z,2.10
2019-03-11T03:05:33.675Z,2.43
2019-03-11T03:08:02.172Z,2.47
2019-03-11T03:10:30.384Z,2.73
2019-03-11T03:12:58.992Z,2.53
2019-03-11T03:15:27.175Z,2.37
2019-03-11T03:17:56.042Z,2.77
2019-03-11T03:20:24.633Z,2.70
2019-03-11T03:22:53.477Z,2.37
2019-03-11T03:25:32.903Z,2.80
2019-03-11T03:27:53.202Z,2.63
2019-03-11T03:30:21.785Z,2.40
2019-03-11T03:32:50.525Z,2.73
2019-03-11T03:35:19.369Z,2.97
2019-03-11T03:37:48.275Z,2.47
2019-03-11T03:40:16.578Z,2.40
2019-03-11T03:42:45.179Z,3.03
2019-03-11T03:45:23.590Z,2.67
2019-03-11T03:47:51.966Z,2.63
2019-03-11T03:50:20.647Z,2.67
2019-03-11T03:52:49.383Z,2.57
2019-03-11T03:55:17.909Z,2.70
2019-03-11T03:57:46.496Z,2.80
2019-03-11T04:00:15.687Z,2.70
2019-03-11T04:03:08.929Z,3.45
2019-03-11T04:05:37.600Z,2.80
2019-03-11T04:08:05.723Z,2.20
2019-03-11T04:10:34.760Z,2.30
2019-03-11T04:13:03.700Z,3.17
2019-03-11T04:15:33.097Z,3.63
2019-03-11T04:18:02.351Z,2.80
2019-03-11T04:20:31.344Z,3.00
2019-03-11T04:23:00.035Z,3.50
2019-03-11T04:25:30.437Z,4.43
2019-03-11T04:27:58.812Z,3.33
2019-03-11T04:30:27.429Z,3.50
2019-03-11T04:32:56.885Z,3.90
2019-03-11T04:35:25.551Z,3.80
2019-03-11T04:37:54.332Z,3.40
2019-03-11T04:40:22.979Z,4.10
2019-03-11T04:42:51.973Z,3.23
2019-03-11T04:45:20.529Z,4.00
2019-03-11T04:47:49.392Z,4.03
2019-03-11T04:50:18.341Z,3.97
2019-03-11T04:52:46.815Z,3.77
2019-03-11T04:55:15.119Z,4.40
2019-03-11T04:57:44.692Z,4.83
2019-03-11T05:00:14.546Z,3.67
2019-03-11T05:02:42.880Z,2.80
2019-03-11T05:05:11.280Z,2.80
2019-03-11T05:07:39.529Z,2.83
2019-03-11T05:10:08.379Z,2.57
2019-03-11T05:12:36.692Z,2.40
2019-03-11T05:15:06.117Z,2.40
2019-03-11T05:17:34.752Z,2.73
2019-03-11T05:20:03.641Z,2.73
2019-03-11T05:22:32.124Z,2.70
2019-03-11T05:25:00.440Z,2.63
2019-03-11T05:27:28.872Z,3.47
2019-03-11T05:29:57.035Z,3.67
2019-03-11T05:32:25.555Z,3.17
2019-03-11T05:34:54.668Z,3.40
2019-03-11T05:37:23.616Z,4.27
2019-03-11T05:39:52.012Z,3.13
2019-03-11T05:42:20.693Z,4.20
2019-03-11T05:44:49.073Z,3.20
2019-03-11T05:47:18.112Z,3.40
2019-03-11T05:49:46.792Z,3.20
2019-03-11T05:52:15.732Z,3.17
2019-03-11T05:54:44.432Z,3.27
2019-03-11T05:57:13.088Z,3.70
2019-03-11T05:59:41.820Z,2.97
2019-03-11T06:02:10.685Z,2.70
2019-03-11T06:04:39.236Z,2.77
2019-03-11T06:07:07.808Z,3.00
2019-03-11T06:09:37.152Z,3.73
2019-03-11T06:12:05.800Z,4.27
2019-03-11T06:14:36.108Z,5.17
2019-03-11T06:17:04.840Z,6.33
2019-03-11T06:19:33.643Z,6.80
2019-03-11T06:22:15.874Z,8.73
2019-03-11T06:24:44.698Z,9.43
2019-03-11T06:27:13.620Z,8.60
2019-03-11T06:29:42.252Z,9.00
2019-03-11T06:32:10.686Z,8.87
2019-03-11T06:34:40.654Z,9.10
2019-03-11T06:37:09.012Z,7.17
2019-03-11T06:39:37.663Z,6.13
2019-03-11T06:42:06.325Z,3.90
2019-03-11T06:44:34.524Z,3.30
2019-03-11T06:47:03.122Z,3.17
2019-03-11T06:49:31.424Z,3.07
2019-03-11T06:52:03.430Z,3.20
2019-03-11T06:54:31.245Z,3.07
2019-03-11T06:56:59.672Z,3.33
2019-03-11T06:59:28.082Z,3.37
2019-03-11T07:01:56.720Z,4.17
2019-03-11T07:04:25.344Z,3.20
2019-03-11T07:06:53.760Z,4.13
2019-03-11T07:09:22.348Z,3.17
2019-03-11T07:11:50.949Z,2.53
2019-03-11T07:14:19.937Z,2.83
2019-03-11T07:16:48.529Z,3.43
2019-03-11T07:19:16.975Z,4.00
2019-03-11T07:21:45.707Z,3.20
2019-03-11T07:24:15.589Z,3.83
2019-03-11T07:26:44.223Z,3.83
2019-03-11T07:29:13.236Z,4.17
2019-03-11T07:31:42.273Z,3.50
2019-03-11T07:34:11.111Z,3.93
2019-03-11T07:36:39.561Z,4.13
2019-03-11T07:39:07.976Z,4.87
2019-03-11T07:41:36.309Z,4.37
2019-03-11T07:44:05.091Z,4.95
2019-03-11T07:46:33.684Z,4.43
2019-03-11T07:49:02.475Z,4.50
2019-03-11T07:51:31.008Z,3.43
2019-03-11T07:53:59.482Z,4.30
2019-03-11T07:56:28.348Z,4.80
2019-03-11T07:58:56.769Z,4.33
2019-03-11T08:01:25.185Z,6.33
2019-03-11T08:03:53.901Z,4.17
2019-03-11T08:06:22.384Z,5.23
2019-03-11T08:08:51.037Z,4.93
2019-03-11T08:11:19.654Z,4.60
2019-03-11T08:13:48.124Z,4.80
2019-03-11T08:16:16.775Z,4.27
2019-03-11T08:18:45.515Z,4.83
2019-03-11T08:21:14.039Z,4.87
2019-03-11T08:23:42.775Z,4.23
2019-03-11T08:26:12.590Z,4.73
2019-03-11T08:28:41.082Z,4.80
2019-03-11T08:31:09.276Z,4.80
2019-03-11T08:33:37.857Z,4.07
2019-03-11T08:36:06.147Z,5.20
2019-03-11T08:38:34.584Z,4.67
2019-03-11T08:41:03.164Z,4.60
2019-03-11T08:43:32.012Z,4.67
2019-03-11T08:46:00.658Z,4.63
2019-03-11T08:48:29.691Z,4.63
2019-03-11T08:50:58.697Z,4.37
2019-03-11T08:53:27.027Z,4.20
2019-03-11T08:55:55.716Z,4.50
2019-03-11T08:58:24.626Z,4.87
2019-03-11T09:00:53.393Z,4.17
2019-03-11T09:03:22.152Z,4.27
2019-03-11T09:05:50.812Z,5.03
2019-03-11T09:08:19.428Z,4.23
2019-03-11T09:10:48.173Z,3.80
2019-03-11T09:13:16.726Z,3.67
2019-03-11T09:15:45.245Z,4.30
2019-03-11T09:18:13.805Z,4.33
2019-03-11T09:20:42.303Z,3.67
2019-03-11T09:23:11.212Z,4.30
2019-03-11T09:25:39.620Z,3.93
2019-03-11T09:28:08.330Z,4.27
2019-03-11T09:30:36.607Z,3.40
2019-03-11T09:33:05.301Z,4.13
2019-03-11T09:35:34.052Z,3.80
2019-03-11T09:38:03.908Z,4.07
2019-03-11T09:40:32.657Z,4.40
2019-03-11T09:43:01.293Z,4.53
2019-03-11T09:45:30.390Z,4.90
2019-03-11T09:47:59.940Z,5.13
2019-03-11T09:50:28.991Z,3.47
2019-03-11T09:52:58.166Z,5.00
2019-03-11T09:55:26.615Z,4.47
2019-03-11T09:57:54.943Z,4.57
2019-03-11T10:00:24.084Z,3.80
2019-03-11T10:02:53.568Z,4.33
2019-03-11T10:05:22.854Z,3.60
2019-03-11T10:07:51.401Z,3.37
2019-03-11T10:10:19.871Z,3.70
2019-03-11T10:12:48.473Z,3.37
2019-03-11T10:15:17.392Z,3.87
2019-03-11T10:17:45.909Z,3.70
2019-03-11T10:20:14.755Z,4.07
2019-03-11T10:22:43.597Z,3.50
2019-03-11T10:25:13.774Z,3.93
2019-03-11T10:27:42.270Z,3.87
2019-03-11T10:30:11.895Z,3.93
2019-03-11T10:32:41.079Z,3.57
2019-03-11T10:35:30.856Z,3.73
2019-03-11T10:37:43.665Z,4.30
2019-03-11T10:40:13.299Z,4.43
2019-03-11T10:42:41.984Z,3.67
2019-03-11T10:45:10.537Z,3.67
2019-03-11T10:47:39.520Z,3.87
2019-03-11T10:50:08.456Z,4.97
2019-03-11T10:52:37.137Z,4.27
2019-03-11T10:55:06.499Z,5.00
2019-03-11T10:57:35.076Z,5.80
2019-03-11T11:00:04.149Z,5.80
2019-03-11T11:02:33.117Z,6.13
2019-03-11T11:05:01.854Z,6.20
2019-03-11T11:07:30.584Z,6.40
2019-03-11T11:09:59.275Z,5.77
2019-03-11T11:12:28.788Z,6.67
2019-03-11T11:14:57.257Z,5.87
2019-03-11T11:17:25.794Z,6.10
2019-03-11T11:20:02.900Z,6.27
2019-03-11T11:22:24.949Z,5.70
2019-03-11T11:24:53.388Z,6.23
2019-03-11T11:27:21.814Z,6.63
2019-03-11T11:29:50.301Z,6.13
2019-03-11T11:32:18.901Z,7.20
2019-03-11T11:34:48.848Z,6.27
2019-03-11T11:37:17.500Z,5.73
2019-03-11T11:39:46.272Z,6.33
2019-03-11T11:42:14.907Z,7.80
2019-03-11T11:44:43.736Z,5.80
2019-03-11T11:47:12.589Z,6.17
2019-03-11T11:49:41.408Z,6.47
2019-03-11T11:52:10.213Z,6.80
2019-03-11T11:54:38.537Z,6.60
2019-03-11T11:57:07.012Z,7.30
2019-03-11T11:59:35.298Z,5.97
2019-03-11T12:02:04.473Z,7.43
2019-03-11T12:04:33.085Z,6.47
2019-03-11T12:07:01.943Z,6.57
2019-03-11T12:09:30.655Z,7.30
2019-03-11T12:11:59.335Z,8.25
2019-03-11T12:14:28.132Z,7.07
2019-03-11T12:16:57.060Z,6.93
2019-03-11T12:19:26.119Z,7.93
2019-03-11T12:21:54.804Z,8.17
2019-03-11T12:24:23.516Z,6.77
2019-03-11T12:26:52.120Z,8.20
2019-03-11T12:29:21.171Z,7.07
2019-03-11T12:31:50.108Z,7.67
2019-03-11T12:34:18.428Z,7.83
2019-03-11T12:36:47.065Z,8.20
2019-03-11T12:39:15.499Z,8.00
2019-03-11T12:41:43.793Z,9.73
2019-03-11T12:44:12.669Z,8.27
2019-03-11T12:46:41.308Z,8.13
2019-03-11T12:49:09.624Z,7.50
2019-03-11T12:51:48.838Z,7.50
2019-03-11T12:54:08.941Z,8.20
2019-03-11T12:56:37.939Z,6.80
2019-03-11T12:59:06.728Z,7.83
2019-03-11T13:01:39.431Z,10.10
2019-03-11T13:04:08.195Z,8.10
2019-03-11T13:06:37.237Z,8.13
2019-03-11T13:09:06.268Z,7.60
2019-03-11T13:11:37.309Z,6.27
2019-03-11T13:14:06.114Z,7.27
2019-03-11T13:16:39.835Z,8.63
2019-03-11T13:19:13.104Z,7.67
2019-03-11T13:21:39.899Z,9.93
2019-03-11T13:24:08.887Z,9.40
2019-03-11T13:26:38.588Z,8.70
2019-03-11T13:29:07.373Z,8.73
2019-03-11T13:31:35.710Z,8.07
2019-03-11T13:34:04.640Z,8.00
2019-03-11T13:36:33.045Z,8.47
2019-03-11T13:39:01.453Z,7.83
2019-03-11T13:41:31.650Z,8.50
2019-03-11T13:44:00.076Z,8.80
2019-03-11T13:46:29.420Z,7.67
2019-03-11T13:48:58.179Z,7.40
2019-03-11T13:51:26.679Z,7.97
2019-03-11T13:53:54.964Z,8.50
2019-03-11T13:56:23.719Z,7.80
2019-03-11T13:58:51.913Z,7.33
2019-03-11T14:01:21.426Z,8.17
2019-03-11T14:03:50.388Z,9.80
2019-03-11T14:06:18.930Z,7.43
2019-03-11T14:08:47.953Z,7.80
2019-03-11T14:11:16.596Z,8.63
2019-03-11T14:13:46.204Z,8.10
2019-03-11T14:16:14.814Z,7.63
2019-03-11T14:18:43.196Z,8.50
2019-03-11T14:21:11.829Z,9.40
2019-03-11T14:23:39.973Z,8.53
2019-03-11T14:26:08.325Z,11.43
2019-03-11T14:28:36.713Z,8.57
2019-03-11T14:31:05.939Z,10.03
2019-03-11T14:33:34.464Z,10.53
2019-03-11T14:36:03.008Z,13.03
2019-03-11T14:38:31.168Z,10.97
2019-03-11T14:40:59.481Z,11.50
2019-03-11T14:43:27.580Z,8.27
2019-03-11T14:45:56.346Z,9.50
2019-03-11T14:48:24.449Z,9.53
2019-03-11T14:50:54.969Z,9.93
2019-03-11T14:53:23.300Z,9.33
2019-03-11T14:55:52.929Z,8.57
2019-03-11T14:58:29.351Z,8.63
2019-03-11T15:00:52.128Z,9.67
2019-03-11T15:03:20.903Z,9.10
2019-03-11T15:05:50.628Z,9.10
2019-03-11T15:08:19.060Z,9.77
2019-03-11T15:10:47.496Z,9.90
2019-03-11T15:13:16.391Z,9.40
2019-03-11T15:15:45.176Z,7.50
2019-03-11T15:18:13.535Z,10.07
2019-03-11T15:20:42.045Z,8.70
2019-03-11T15:23:20.041Z,8.67
2019-03-11T15:25:41.515Z,8.00
2019-03-11T15:28:10.508Z,7.43
2019-03-11T15:30:38.888Z,7.53
2019-03-11T15:33:07.451Z,9.20
2019-03-11T15:35:35.983Z,8.47
2019-03-11T15:38:05.559Z,9.57
2019-03-11T15:40:34.656Z,8.13
2019-03-11T15:43:03.484Z,7.90
2019-03-11T15:45:38.544Z,8.87
2019-03-11T15:48:02.393Z,10.23
2019-03-11T15:50:30.604Z,8.07
2019-03-11T15:52:58.775Z,11.48
2019-03-11T15:55:27.493Z,9.93
2019-03-11T15:57:56.764Z,10.43
2019-03-11T16:00:25.194Z,7.77
2019-03-11T16:02:53.957Z,8.77
2019-03-11T16:05:22.946Z,9.60
2019-03-11T16:07:53.021Z,8.80
2019-03-11T16:10:22.163Z,9.20
2019-03-11T16:12:50.993Z,9.17
2019-03-11T16:15:19.680Z,10.17
2019-03-11T16:17:48.526Z,8.23
2019-03-11T16:20:18.003Z,9.63
2019-03-11T16:22:46.705Z,8.43
2019-03-11T16:25:15.817Z,11.70
2019-03-11T16:27:44.471Z,10.60
2019-03-11T16:30:16.408Z,9.73
2019-03-11T16:32:57.906Z,8.77
2019-03-11T16:35:15.420Z,10.80
2019-03-11T16:37:44.158Z,8.00
2019-03-11T16:40:13.988Z,9.93
2019-03-11T16:42:42.919Z,9.53
2019-03-11T16:45:11.964Z,10.07
2019-03-11T16:47:40.453Z,10.43
2019-03-11T16:50:10.981Z,9.33
2019-03-11T16:52:39.801Z,12.43
2019-03-11T16:55:09.068Z,9.00
2019-03-11T16:57:37.582Z,8.73
2019-03-11T17:00:10.101Z,10.87
2019-03-11T17:02:38.958Z,9.73
2019-03-11T17:05:07.733Z,10.57
2019-03-11T17:07:36.625Z,10.57
2019-03-11T17:10:05.500Z,9.50
2019-03-11T17:12:34.197Z,10.27
2019-03-11T17:15:02.701Z,9.50
2019-03-11T17:17:31.976Z,8.80
2019-03-11T17:20:00.726Z,10.73
2019-03-11T17:22:29.267Z,8.83
2019-03-11T17:24:58.041Z,12.82
2019-03-11T17:27:26.602Z,12.20
2019-03-11T17:29:55.118Z,10.33
2019-03-11T17:32:23.320Z,10.30
2019-03-11T17:34:52.064Z,10.50
2019-03-11T17:37:20.605Z,12.03
2019-03-11T17:39:49.599Z,12.13
2019-03-11T17:42:18.345Z,11.90
2019-03-11T17:44:46.971Z,10.93
2019-03-11T17:47:15.600Z,15.17
2019-03-11T17:49:44.488Z,16.97
2019-03-11T17:52:12.933Z,18.47
2019-03-11T17:54:42.430Z,17.70
2019-03-11T17:57:10.840Z,13.97
2019-03-11T17:59:40.812Z,14.90
2019-03-11T18:02:09.923Z,13.67
2019-03-11T18:04:38.756Z,11.03
2019-03-11T18:07:07.240Z,12.83
2019-03-11T18:09:35.568Z,11.93
2019-03-11T18:12:03.989Z,11.33
2019-03-11T18:14:32.707Z,11.17
2019-03-11T18:17:02.164Z,9.30
2019-03-11T18:19:31.043Z,13.33
2019-03-11T18:22:00.023Z,12.13
2019-03-11T18:24:29.016Z,13.80
2019-03-11T18:26:58.213Z,11.67
2019-03-11T18:29:27.006Z,13.53
2019-03-11T18:32:01.945Z,12.83
2019-03-11T18:34:26.214Z,15.70
2019-03-11T18:36:55.523Z,16.17
2019-03-11T18:39:24.266Z,13.13
2019-03-11T18:41:53.115Z,10.73
2019-03-11T18:44:21.703Z,10.87
2019-03-11T18:46:50.248Z,10.30
2019-03-11T18:49:18.948Z,11.30
2019-03-11T18:51:47.639Z,13.18
2019-03-11T18:54:16.459Z,9.17
2019-03-11T18:56:45.327Z,12.53
2019-03-11T18:59:13.625Z,8.63
2019-03-11T19:01:42.008Z,11.73
2019-03-11T19:04:10.346Z,13.33
2019-03-11T19:06:38.744Z,10.07
2019-03-11T19:09:07.320Z,13.13
2019-03-11T19:11:37.376Z,7.67
2019-03-11T19:14:05.535Z,9.73
2019-03-11T19:16:33.800Z,7.43
2019-03-11T19:19:02.610Z,8.00
2019-03-11T19:21:31.898Z,9.70
2019-03-11T19:24:00.232Z,14.53
2019-03-11T19:26:28.620Z,11.30
2019-03-11T19:28:57.975Z,9.90
2019-03-11T19:31:26.314Z,9.83
2019-03-11T19:33:55.445Z,9.97
2019-03-11T19:36:25.088Z,12.10
2019-03-11T19:38:53.404Z,11.60
2019-03-11T19:41:22.288Z,9.93
2019-03-11T19:43:50.945Z,8.47
2019-03-11T19:46:19.238Z,8.80
2019-03-11T19:48:47.967Z,7.97
2019-03-11T19:51:16.216Z,9.53
2019-03-11T19:53:44.710Z,10.40
2019-03-11T19:56:16.206Z,10.43
2019-03-11T19:58:45.582Z,11.20
2019-03-11T20:01:14.198Z,8.90
2019-03-11T20:03:42.549Z,10.10
2019-03-11T20:06:11.280Z,10.57
2019-03-11T20:08:40.181Z,8.00
2019-03-11T20:11:08.796Z,8.83
2019-03-11T20:13:38.083Z,9.13
2019-03-11T20:16:06.580Z,8.43
2019-03-11T20:18:35.298Z,8.20
2019-03-11T20:21:03.978Z,8.17
2019-03-11T20:23:32.274Z,9.10
2019-03-11T20:26:01.595Z,9.43
2019-03-11T20:28:30.331Z,10.07
2019-03-11T20:30:58.725Z,10.07
2019-03-11T20:33:27.615Z,9.40
2019-03-11T20:35:58.295Z,7.33
2019-03-11T20:38:27.434Z,7.70
2019-03-11T20:40:56.656Z,11.70
2019-03-11T20:43:27.097Z,9.07
2019-03-11T20:45:55.888Z,9.13
2019-03-11T20:48:24.594Z,11.03
2019-03-11T20:50:53.335Z,9.93
2019-03-11T20:53:22.748Z,10.80
2019-03-11T20:55:51.909Z,9.40
2019-03-11T20:58:21.287Z,9.03
2019-03-11T21:00:50.107Z,9.33
2019-03-11T21:03:19.742Z,11.53
2019-03-11T21:05:49.495Z,10.23
2019-03-11T21:08:17.834Z,8.80
2019-03-11T21:10:46.566Z,8.30
2019-03-11T21:13:16.069Z,7.80
2019-03-11T21:15:45.350Z,8.53
2019-03-11T21:18:15.433Z,8.93
2019-03-11T21:20:44.839Z,8.40
2019-03-11T21:23:13.599Z,8.03
2019-03-11T21:25:42.239Z,8.90
2019-03-11T21:28:11.179Z,7.93
2019-03-11T21:30:39.795Z,9.77
2019-03-11T21:33:07.932Z,9.00
2019-03-11T21:35:37.070Z,9.17
2019-03-11T21:38:05.528Z,8.90
2019-03-11T21:40:33.872Z,9.17
2019-03-11T21:43:02.283Z,12.13
2019-03-11T21:45:34.498Z,9.23
2019-03-11T21:48:00.899Z,8.87
2019-03-11T21:50:29.871Z,9.87
2019-03-11T21:52:58.513Z,9.37
2019-03-11T21:55:26.902Z,8.70
2019-03-11T21:57:55.437Z,11.17
2019-03-11T22:00:34.096Z,8.43
2019-03-11T22:02:54.131Z,9.67
2019-03-11T22:05:22.610Z,9.63
2019-03-11T22:07:50.728Z,9.07
2019-03-11T22:10:19.661Z,11.95
2019-03-11T22:12:47.996Z,9.57
2019-03-11T22:15:16.468Z,9.57
2019-03-11T22:17:44.772Z,8.83
2019-03-11T22:20:13.341Z,9.23
2019-03-11T22:22:41.851Z,7.77
2019-03-11T22:25:11.204Z,10.13
2019-03-11T22:27:40.525Z,9.53
2019-03-11T22:30:11.200Z,4.57
2019-03-11T22:32:39.516Z,3.60
2019-03-11T22:35:12.892Z,2.87
2019-03-11T22:37:39.031Z,2.40
2019-03-11T22:40:08.089Z,2.80
2019-03-11T22:42:36.512Z,2.50
2019-03-11T22:45:05.432Z,1.90
2019-03-11T22:47:38.415Z,1.65
2019-03-11T22:50:07.394Z,2.30
2019-03-11T22:52:35.704Z,1.60
2019-03-11T22:55:07.496Z,1.60
2019-03-11T22:57:35.832Z,1.30
2019-03-11T23:00:04.772Z,1.17
2019-03-11T23:02:39.961Z,1.50
2019-03-11T23:05:07.128Z,1.03
2019-03-11T23:07:35.436Z,1.33
2019-03-11T23:10:04.357Z,1.70
2019-03-11T23:12:34.248Z,0.90
2019-03-11T23:15:02.598Z,1.60
2019-03-11T23:17:30.998Z,1.97
2019-03-11T23:19:59.882Z,2.07
2019-03-11T23:22:28.737Z,0.63
2019-03-11T23:24:57.482Z,0.70
2019-03-11T23:27:26.594Z,0.70
2019-03-11T23:29:55.305Z,0.60
2019-03-11T23:32:23.901Z,0.70
2019-03-11T23:34:52.432Z,0.50
2019-03-11T23:37:20.611Z,0.43
2019-03-11T23:39:49.924Z,0.50
2019-03-11T23:42:21.220Z,0.67
2019-03-11T23:44:49.991Z,0.73
2019-03-11T23:47:18.730Z,1.00
2019-03-11T23:49:47.533Z,1.13
2019-03-11T23:52:16.160Z,1.10
2019-03-11T23:54:45.032Z,0.90
2019-03-11T23:57:13.724Z,0.87
2019-03-11T23:59:42.410Z,0.80
